Time;durP1;ratioP1;P1;durP2;ratioP2;P2;SDS_P1;SDS_P2;PMS_P1;PMS_P2;Temp;Humidity;BMP_temperature;BMP_pressure;BME280_temperature;BME280_humidity;BME280_pressure;Samples;Min_cycle;Max_cycle;Signal;HPM_P1;HPM_P2
2023/01/11 00:01:21;;;;;;;3.53;2.42;;;12.30;99.90;;;;;;4970777;28;20181;-70
2023/01/11 00:03:47;;;;;;;5.97;2.63;;;12.40;99.90;;;;;;4983279;28;20223;-68
2023/01/11 00:06:12;;;;;;;2.53;2.03;;;12.40;99.90;;;;;;4993562;28;20195;-68
2023/01/11 00:08:38;;;;;;;5.05;2.08;;;12.20;99.90;;;;;;4976324;28;20216;-69
2023/01/11 00:11:09;;;;;;;5.80;2.15;;;12.10;99.90;;;;;;4984061;28;20188;-69
2023/01/11 00:13:35;;;;;;;2.72;2.53;;;12.10;99.90;;;;;;4973523;28;20188;-68
2023/01/11 00:16:08;;;;;;;3.47;2.25;;;12.10;99.90;;;;;;4984182;28;20196;-70
2023/01/11 00:18:34;;;;;;;3.60;2.40;;;12.00;99.90;;;;;;4992779;28;20184;-70
2023/01/11 00:21:04;;;;;;;3.67;3.17;;;12.10;99.90;;;;;;4969304;28;20192;-69
2023/01/11 00:23:30;;;;;;;5.13;2.53;;;12.00;99.90;;;;;;4989504;28;20199;-70
2023/01/11 00:25:56;;;;;;;5.00;3.03;;;12.10;99.90;;;;;;4981333;28;20608;-70
2023/01/11 00:28:22;;;;;;;4.93;2.80;;;12.20;99.90;;;;;;4979408;28;20251;-70
2023/01/11 00:30:48;;;;;;;2.67;2.40;;;12.10;99.90;;;;;;4992013;28;20200;-70
2023/01/11 00:33:14;;;;;;;3.20;2.80;;;12.10;99.90;;;;;;4986707;28;20533;-70
2023/01/11 00:35:39;;;;;;;4.75;2.95;;;12.10;99.90;;;;;;4977790;28;20199;-70
2023/01/11 00:38:05;;;;;;;2.60;2.47;;;12.10;99.90;;;;;;4990575;28;20197;-70
2023/01/11 00:40:31;;;;;;;4.10;2.85;;;12.20;99.90;;;;;;4988297;28;20195;-70
2023/01/11 00:48:25;;;;;;;8.02;4.25;;;12.20;99.90;;;;;;4977438;28;20236;-70
2023/01/11 00:50:54;;;;;;;5.57;2.47;;;12.00;99.90;;;;;;4973817;28;20197;-73
2023/01/11 00:53:20;;;;;;;6.43;3.20;;;12.00;99.90;;;;;;4986984;28;20197;-70
2023/01/11 00:55:45;;;;;;;3.53;3.00;;;12.10;99.90;;;;;;4983793;28;20239;-70
2023/01/11 00:58:11;;;;;;;6.10;3.58;;;12.20;99.90;;;;;;4979634;28;20197;-70
2023/01/11 01:00:37;;;;;;;5.78;5.18;;;12.10;99.90;;;;;;4977581;28;20185;-70
2023/01/11 01:03:03;;;;;;;4.78;2.75;;;12.10;99.90;;;;;;4983175;28;20294;-72
2023/01/11 01:05:28;;;;;;;7.50;3.17;;;12.10;99.90;;;;;;4989757;28;20177;-70
2023/01/11 01:07:54;;;;;;;8.23;3.22;;;12.10;99.90;;;;;;4972526;28;20192;-74
2023/01/11 01:10:20;;;;;;;4.78;3.92;;;12.20;99.90;;;;;;4983790;28;20219;-70
2023/01/11 01:15:31;;;;;;;5.20;3.13;;;12.00;99.90;;;;;;4986286;28;20196;-70
2023/01/11 01:17:57;;;;;;;2.92;2.70;;;12.00;99.90;;;;;;4979075;28;20180;-70
2023/01/11 01:20:23;;;;;;;3.63;3.10;;;12.00;99.90;;;;;;4974601;28;20316;-68
2023/01/11 01:22:50;;;;;;;4.82;3.17;;;12.10;99.90;;;;;;4974717;28;20249;-68
2023/01/11 01:25:16;;;;;;;3.33;2.63;;;12.10;99.90;;;;;;4982044;28;20649;-68
2023/01/11 01:27:41;;;;;;;2.50;2.30;;;12.10;99.90;;;;;;4974171;28;20188;-70
2023/01/11 01:30:08;;;;;;;4.07;2.97;;;12.10;99.90;;;;;;4981839;28;20189;-70
2023/01/11 01:32:34;;;;;;;4.57;3.10;;;12.10;99.90;;;;;;4974804;28;20185;-70
2023/01/11 01:34:59;;;;;;;4.55;3.88;;;12.10;99.90;;;;;;4973268;28;20664;-69
2023/01/11 01:37:25;;;;;;;5.63;2.85;;;12.10;99.90;;;;;;4974569;28;20556;-69
2023/01/11 01:39:51;;;;;;;2.95;2.55;;;12.10;99.90;;;;;;4984510;28;20196;-69
2023/01/11 01:42:19;;;;;;;3.30;2.55;;;12.10;99.90;;;;;;4980636;28;20246;-69
2023/01/11 01:45:05;;;;;;;2.55;2.35;;;12.00;99.90;;;;;;4985476;28;20539;-70
2023/01/11 01:47:33;;;;;;;4.72;2.25;;;12.00;99.90;;;;;;4975530;28;20183;-70
2023/01/11 01:50:03;;;;;;;2.83;2.33;;;12.10;99.90;;;;;;4987329;28;20305;-70
2023/01/11 01:52:32;;;;;;;5.20;2.63;;;12.10;99.90;;;;;;4981091;28;20195;-69
2023/01/11 01:55:01;;;;;;;4.43;2.00;;;12.10;99.90;;;;;;4987523;28;20180;-70
2023/01/11 01:57:31;;;;;;;5.22;2.38;;;12.20;99.90;;;;;;4972960;28;20635;-69
2023/01/11 02:00:02;;;;;;;1.83;1.63;;;12.20;99.90;;;;;;4986700;28;20192;-70
2023/01/11 02:02:27;;;;;;;3.67;1.55;;;12.20;99.90;;;;;;4974678;28;20188;-69
2023/01/11 02:04:55;;;;;;;1.55;1.45;;;12.30;99.90;;;;;;4972516;28;20243;-69
2023/01/11 02:07:33;;;;;;;2.38;2.28;;;12.30;99.90;;;;;;4987292;28;20652;-69
2023/01/11 02:10:09;;;;;;;2.15;1.95;;;12.20;99.90;;;;;;4985603;28;20755;-70
2023/01/11 02:12:45;;;;;;;3.88;2.00;;;12.20;99.90;;;;;;4972925;28;20180;-69
2023/01/11 02:15:12;;;;;;;1.40;1.38;;;12.20;99.90;;;;;;4980809;28;20184;-69
2023/01/11 02:17:37;;;;;;;2.78;1.88;;;12.20;99.90;;;;;;4981263;28;20180;-69
2023/01/11 02:20:12;;;;;;;1.70;1.60;;;12.20;99.90;;;;;;4986353;28;20275;-69
2023/01/11 02:22:50;;;;;;;2.88;1.50;;;12.20;99.90;;;;;;4981208;28;20179;-68
2023/01/11 02:25:34;;;;;;;1.58;1.50;;;12.30;99.90;;;;;;4989526;28;20215;-69
2023/01/11 02:28:23;;;;;;;2.97;1.58;;;12.20;99.90;;;;;;4975138;28;20701;-68
2023/01/11 02:31:08;;;;;;;5.53;1.45;;;12.30;99.90;;;;;;4978220;28;20204;-70
2023/01/11 02:34:01;;;;;;;1.77;1.67;;;12.40;99.90;;;;;;4973683;28;20188;-69
2023/01/11 02:36:59;;;;;;;1.58;1.48;;;12.30;99.90;;;;;;4980257;28;20184;-69
2023/01/11 02:39:50;;;;;;;2.15;1.40;;;12.20;99.90;;;;;;4985918;28;20204;-69
2023/01/11 02:45:36;;;;;;;3.75;1.10;;;12.40;99.90;;;;;;4984101;28;20218;-69
2023/01/11 02:48:08;;;;;;;3.88;2.10;;;12.40;99.90;;;;;;4980747;28;20216;-70
2023/01/11 02:50:49;;;;;;;1.67;1.60;;;12.30;99.90;;;;;;4990954;28;20188;-69
2023/01/11 02:53:31;;;;;;;1.58;1.40;;;12.30;99.90;;;;;;4971800;28;20192;-68
2023/01/11 02:56:00;;;;;;;2.80;1.52;;;12.30;99.90;;;;;;4979156;28;20185;-72
2023/01/11 02:58:30;;;;;;;5.13;1.73;;;12.30;99.90;;;;;;4974523;28;20235;-69
2023/01/11 03:00:57;;;;;;;1.45;1.13;;;12.30;99.90;;;;;;4979478;28;20185;-70
2023/01/11 03:03:26;;;;;;;1.38;1.30;;;12.30;99.90;;;;;;4985682;28;20184;-69
2023/01/11 03:06:00;;;;;;;1.17;1.17;;;12.30;99.90;;;;;;4986091;28;20547;-70
2023/01/11 03:08:43;;;;;;;2.20;1.38;;;12.40;99.90;;;;;;4976095;28;20210;-69
2023/01/11 03:14:27;;;;;;;2.60;1.50;;;12.40;99.90;;;;;;4973505;28;20667;-69
2023/01/11 03:17:11;;;;;;;1.42;1.33;;;12.40;99.90;;;;;;4974284;28;20203;-69
2023/01/11 03:19:50;;;;;;;3.03;1.38;;;12.40;99.90;;;;;;4973404;28;20197;-69
2023/01/11 03:22:30;;;;;;;1.60;1.50;;;12.40;99.90;;;;;;4977409;28;20184;-69
2023/01/11 03:25:16;;;;;;;1.73;1.60;;;12.50;99.90;;;;;;4991725;28;20188;-70
2023/01/11 03:27:56;;;;;;;0.95;0.95;;;12.50;99.90;;;;;;4979973;28;20196;-69
2023/01/11 03:30:27;;;;;;;1.63;1.63;;;12.50;99.90;;;;;;4986152;28;20198;-69
2023/01/11 03:33:11;;;;;;;3.40;1.55;;;12.40;99.90;;;;;;4989554;28;20236;-68
2023/01/11 03:35:46;;;;;;;1.00;1.00;;;12.40;99.90;;;;;;4981222;28;20641;-69
2023/01/11 03:38:22;;;;;;;1.20;1.13;;;12.40;99.90;;;;;;4976865;28;20196;-69
2023/01/11 03:41:00;;;;;;;1.13;1.08;;;12.40;99.90;;;;;;4983202;28;20188;-69
2023/01/11 03:43:28;;;;;;;1.10;1.10;;;12.40;99.90;;;;;;4975222;28;20177;-69
2023/01/11 03:46:02;;;;;;;0.90;0.90;;;12.50;99.90;;;;;;4986398;28;20195;-69
2023/01/11 03:48:54;;;;;;;1.20;1.10;;;12.50;99.90;;;;;;4978415;28;20208;-69
2023/01/11 03:51:33;;;;;;;1.20;1.20;;;12.50;99.90;;;;;;4987032;28;20187;-69
2023/01/11 03:54:02;;;;;;;1.15;1.05;;;12.50;99.90;;;;;;4989661;28;20187;-70
2023/01/11 03:56:55;;;;;;;1.25;1.15;;;12.50;99.90;;;;;;4981839;28;20192;-69
2023/01/11 03:59:20;;;;;;;2.78;1.17;;;12.50;99.90;;;;;;4980534;28;20189;-69
2023/01/11 04:01:46;;;;;;;1.30;1.25;;;12.50;99.90;;;;;;4991032;28;20573;-69
2023/01/11 04:04:12;;;;;;;1.00;1.00;;;12.60;99.90;;;;;;4978550;28;20288;-70
2023/01/11 04:06:38;;;;;;;1.00;1.00;;;12.50;99.90;;;;;;4976227;28;20193;-71
2023/01/11 04:09:05;;;;;;;1.08;1.08;;;12.60;99.90;;;;;;4979282;28;20263;-70
2023/01/11 04:11:31;;;;;;;1.08;1.05;;;12.70;99.90;;;;;;4988538;28;20268;-69
2023/01/11 04:13:56;;;;;;;0.63;0.63;;;12.60;99.90;;;;;;4974855;28;20280;-69
2023/01/11 04:16:22;;;;;;;0.80;0.80;;;12.70;99.90;;;;;;4984432;28;20193;-69
2023/01/11 04:18:47;;;;;;;0.82;0.82;;;12.70;99.90;;;;;;4981905;28;20358;-69
2023/01/11 04:21:13;;;;;;;1.90;1.17;;;12.70;99.90;;;;;;4981262;28;20185;-70
2023/01/11 04:23:39;;;;;;;0.80;0.80;;;12.80;99.90;;;;;;4974212;28;20192;-70
2023/01/11 04:26:04;;;;;;;0.88;0.88;;;12.80;99.90;;;;;;4976113;28;20189;-69
2023/01/11 04:28:30;;;;;;;1.90;1.10;;;12.80;99.90;;;;;;4975840;28;20220;-68
2023/01/11 04:30:56;;;;;;;0.88;0.70;;;12.80;99.90;;;;;;4976652;28;20188;-67
2023/01/11 04:33:21;;;;;;;1.33;1.10;;;12.70;99.90;;;;;;4976552;28;20220;-69
2023/01/11 04:35:48;;;;;;;0.90;0.90;;;12.80;99.90;;;;;;4983709;28;20192;-69
2023/01/11 04:38:14;;;;;;;1.55;1.08;;;12.90;99.90;;;;;;4958027;28;20196;-70
2023/01/11 04:40:40;;;;;;;1.02;1.02;;;12.90;99.90;;;;;;4986910;28;20275;-70
2023/01/11 04:43:05;;;;;;;0.90;0.90;;;12.90;99.90;;;;;;4979732;28;20615;-69
2023/01/11 04:45:31;;;;;;;2.75;1.27;;;13.00;99.90;;;;;;4975166;28;20189;-69
2023/01/11 04:47:57;;;;;;;1.20;1.20;;;13.00;99.90;;;;;;4979745;28;20184;-68
2023/01/11 04:50:24;;;;;;;1.13;1.10;;;13.10;99.90;;;;;;4970021;28;20265;-69
2023/01/11 04:52:50;;;;;;;0.85;0.85;;;13.00;99.90;;;;;;4979381;28;20203;-69
2023/01/11 04:55:16;;;;;;;1.20;1.10;;;13.00;99.90;;;;;;4975664;28;20177;-68
2023/01/11 04:57:45;;;;;;;1.20;1.20;;;12.80;99.90;;;;;;4974450;28;20283;-67
2023/01/11 05:00:12;;;;;;;1.30;1.25;;;12.80;99.90;;;;;;4974144;28;20267;-68
2023/01/11 05:02:38;;;;;;;1.10;1.10;;;12.70;99.90;;;;;;4977602;28;20188;-68
2023/01/11 05:05:05;;;;;;;1.33;1.17;;;12.80;99.90;;;;;;4982192;28;20207;-67
2023/01/11 05:07:31;;;;;;;0.93;0.93;;;12.80;99.90;;;;;;4974125;28;20181;-68
2023/01/11 05:09:57;;;;;;;1.45;1.35;;;12.80;99.90;;;;;;4975323;28;20670;-68
2023/01/11 05:12:22;;;;;;;3.60;1.35;;;12.70;99.90;;;;;;4974850;28;20192;-67
2023/01/11 05:14:48;;;;;;;8.32;2.35;;;12.60;99.90;;;;;;4972726;28;20196;-68
2023/01/11 05:17:14;;;;;;;3.15;1.45;;;12.60;99.90;;;;;;4965973;28;20267;-67
2023/01/11 05:19:40;;;;;;;6.00;1.80;;;12.60;99.90;;;;;;4983175;28;20741;-67
2023/01/11 05:22:07;;;;;;;3.35;1.65;;;12.50;99.90;;;;;;4971053;28;20193;-68
2023/01/11 05:24:32;;;;;;;2.72;1.88;;;12.40;99.90;;;;;;4984912;28;20183;-67
2023/01/11 05:26:58;;;;;;;8.73;2.55;;;12.40;99.90;;;;;;4966575;28;20192;-68
2023/01/11 05:29:24;;;;;;;4.47;2.83;;;12.40;99.90;;;;;;4970920;28;20227;-69
2023/01/11 05:31:49;;;;;;;4.82;1.83;;;12.40;99.90;;;;;;4978965;28;20176;-67
2023/01/11 05:34:16;;;;;;;2.90;2.00;;;12.40;99.90;;;;;;4978429;28;20549;-68
2023/01/11 05:36:42;;;;;;;3.20;1.67;;;12.40;99.90;;;;;;4975817;28;20231;-69
2023/01/11 05:39:10;;;;;;;2.20;1.55;;;12.40;99.90;;;;;;4981610;28;20185;-68
2023/01/11 05:41:36;;;;;;;5.15;2.65;;;12.40;99.90;;;;;;4988463;28;20180;-68
2023/01/11 05:46:47;;;;;;;5.43;2.17;;;12.40;99.90;;;;;;4974340;28;20276;-69
2023/01/11 05:49:14;;;;;;;5.95;3.30;;;12.40;99.90;;;;;;4983813;28;20237;-69
2023/01/11 05:51:41;;;;;;;6.82;2.22;;;12.50;99.90;;;;;;4977229;28;20201;-69
2023/01/11 05:54:10;;;;;;;5.68;2.03;;;12.50;99.90;;;;;;4974368;28;20212;-68
2023/01/11 05:56:36;;;;;;;4.47;2.00;;;12.50;99.90;;;;;;4975553;28;21395;-68
2023/01/11 05:59:02;;;;;;;4.43;2.38;;;12.50;99.90;;;;;;4975833;28;20184;-68
2023/01/11 06:01:28;;;;;;;8.00;2.13;;;12.60;99.90;;;;;;4988043;28;20280;-69
2023/01/11 06:03:54;;;;;;;5.80;1.48;;;12.60;99.90;;;;;;4973603;28;20216;-69
2023/01/11 06:06:20;;;;;;;4.75;1.90;;;12.60;99.90;;;;;;4982065;28;20207;-67
2023/01/11 06:08:46;;;;;;;8.10;1.90;;;12.60;99.90;;;;;;4973508;28;20584;-69
2023/01/11 06:11:13;;;;;;;6.30;1.98;;;12.70;99.90;;;;;;4981785;28;20184;-69
2023/01/11 06:13:39;;;;;;;3.17;1.98;;;12.60;99.90;;;;;;4979449;28;20185;-68
2023/01/11 06:16:13;;;;;;;6.00;1.90;;;12.50;99.90;;;;;;4990397;28;20184;-67
2023/01/11 06:18:41;;;;;;;4.78;2.05;;;12.50;99.90;;;;;;4985264;28;20257;-68
2023/01/11 06:21:08;;;;;;;3.72;1.35;;;12.50;99.90;;;;;;4987347;28;20275;-67
2023/01/11 06:23:35;;;;;;;3.47;2.28;;;12.50;99.90;;;;;;4983515;28;20222;-69
2023/01/11 06:26:07;;;;;;;22.50;3.15;;;12.50;99.90;;;;;;4984172;28;20243;-69
2023/01/11 06:28:34;;;;;;;8.27;1.60;;;12.40;99.90;;;;;;4978960;28;20632;-69
2023/01/11 06:31:00;;;;;;;4.13;1.90;;;12.40;99.90;;;;;;4984448;28;20195;-70
2023/01/11 06:33:27;;;;;;;8.30;2.35;;;12.50;99.90;;;;;;4973521;28;20189;-70
2023/01/11 06:35:54;;;;;;;4.07;2.00;;;12.50;99.90;;;;;;4973680;28;20191;-70
2023/01/11 06:38:22;;;;;;;4.22;2.03;;;12.60;99.90;;;;;;4975069;28;20196;-70
2023/01/11 06:40:53;;;;;;;9.00;2.10;;;12.50;99.90;;;;;;4973812;28;20196;-70
2023/01/11 06:43:19;;;;;;;8.57;1.98;;;12.40;99.90;;;;;;4973568;28;20195;-70
2023/01/11 06:45:45;;;;;;;8.98;2.17;;;12.50;99.90;;;;;;4973394;28;20220;-70
2023/01/11 06:48:10;;;;;;;9.95;1.67;;;12.50;99.90;;;;;;4973055;28;20294;-70
2023/01/11 06:50:36;;;;;;;6.72;1.65;;;12.40;99.90;;;;;;4973298;28;20188;-70
2023/01/11 06:53:02;;;;;;;3.22;1.90;;;12.30;99.90;;;;;;4973206;28;20199;-70
2023/01/11 06:55:28;;;;;;;8.75;2.22;;;12.00;99.90;;;;;;4988056;28;20196;-70
2023/01/11 06:57:54;;;;;;;8.50;1.95;;;12.00;99.90;;;;;;4973390;28;20191;-70
2023/01/11 07:00:20;;;;;;;5.72;2.05;;;12.00;99.90;;;;;;4973604;28;20192;-69
2023/01/11 07:02:47;;;;;;;7.55;2.50;;;11.90;99.90;;;;;;4972028;28;20185;-70
2023/01/11 07:05:13;;;;;;;4.72;1.75;;;11.90;99.90;;;;;;4983410;28;20192;-70
2023/01/11 07:07:41;;;;;;;10.27;2.10;;;11.70;99.90;;;;;;4990837;28;20181;-70
2023/01/11 07:10:09;;;;;;;8.52;2.30;;;11.70;99.90;;;;;;4984265;28;20212;-70
2023/01/11 07:12:36;;;;;;;7.53;1.23;;;11.60;99.90;;;;;;4996105;28;20199;-70
2023/01/11 07:15:02;;;;;;;5.45;1.27;;;11.70;99.90;;;;;;4988291;28;20184;-70
2023/01/11 07:17:28;;;;;;;11.30;2.08;;;11.70;99.90;;;;;;4981513;28;20208;-70
2023/01/11 07:19:54;;;;;;;6.90;1.58;;;11.60;99.90;;;;;;4967236;28;20188;-70
2023/01/11 07:22:21;;;;;;;2.80;1.38;;;11.40;99.90;;;;;;4990270;28;20652;-70
2023/01/11 07:24:47;;;;;;;5.40;1.48;;;11.50;99.90;;;;;;4994122;28;20645;-70
2023/01/11 07:27:13;;;;;;;5.40;1.73;;;11.40;99.90;;;;;;4979311;28;20220;-70
2023/01/11 07:29:39;;;;;;;11.70;2.42;;;11.40;99.90;;;;;;4976580;28;20251;-70
2023/01/11 07:32:05;;;;;;;10.55;1.98;;;11.40;99.90;;;;;;4975840;28;20180;-70
2023/01/11 07:34:31;;;;;;;4.40;1.45;;;11.50;99.90;;;;;;4976661;28;20201;-70
2023/01/11 07:36:56;;;;;;;7.80;1.48;;;11.40;99.90;;;;;;4976744;28;20259;-70
2023/01/11 07:39:22;;;;;;;8.75;1.58;;;11.40;99.90;;;;;;4991954;28;20194;-70
2023/01/11 07:44:32;;;;;;;5.25;1.60;;;11.10;99.90;;;;;;4976364;28;20208;-70
2023/01/11 07:46:57;;;;;;;5.75;1.30;;;11.00;99.90;;;;;;4976626;28;20193;-70
2023/01/11 07:49:23;;;;;;;16.80;2.72;;;11.10;99.90;;;;;;4976281;28;20212;-70
2023/01/11 07:51:50;;;;;;;7.45;1.48;;;11.10;99.90;;;;;;4975571;28;20653;-70
2023/01/11 07:54:17;;;;;;;6.55;1.80;;;11.00;99.90;;;;;;4979118;28;20239;-70
2023/01/11 07:56:42;;;;;;;14.65;1.95;;;11.00;99.90;;;;;;4983573;28;20192;-69
2023/01/11 07:59:08;;;;;;;3.58;1.30;;;11.00;99.90;;;;;;4976676;28;21252;-69
2023/01/11 08:01:34;;;;;;;10.80;2.72;;;11.00;99.90;;;;;;4979237;28;20199;-69
2023/01/11 08:04:00;;;;;;;8.95;1.58;;;11.00;99.90;;;;;;4979956;28;20188;-70
2023/01/11 08:06:26;;;;;;;4.70;1.75;;;10.90;99.90;;;;;;4964153;28;20188;-70
2023/01/11 08:08:51;;;;;;;4.70;1.70;;;10.90;99.90;;;;;;4991235;28;20224;-70
2023/01/11 08:16:45;;;;;;;11.73;2.38;;;10.70;99.90;;;;;;4993579;28;20234;-70
2023/01/11 08:19:11;;;;;;;9.60;2.92;;;10.70;99.90;;;;;;4979511;28;20224;-70
2023/01/11 08:21:37;;;;;;;11.95;3.28;;;10.70;99.90;;;;;;4988131;28;20185;-70
2023/01/11 08:24:02;;;;;;;7.80;2.22;;;10.80;99.90;;;;;;4981691;28;20197;-70
2023/01/11 08:26:28;;;;;;;6.47;1.65;;;10.90;99.90;;;;;;4977670;28;20653;-70
2023/01/11 08:28:54;;;;;;;10.33;3.27;;;10.80;99.90;;;;;;4962035;28;20236;-70
2023/01/11 08:31:20;;;;;;;6.15;1.83;;;10.80;99.90;;;;;;4975340;28;20567;-70
2023/01/11 08:33:47;;;;;;;4.25;2.22;;;10.80;99.90;;;;;;4975749;28;20192;-70
2023/01/11 08:36:13;;;;;;;7.40;1.90;;;10.80;99.90;;;;;;4988650;28;20251;-70
2023/01/11 08:38:39;;;;;;;11.48;2.63;;;10.80;99.90;;;;;;4989373;28;20197;-70
2023/01/11 08:41:11;;;;;;;8.45;2.40;;;10.80;99.90;;;;;;4987845;28;20192;-70
2023/01/11 08:43:40;;;;;;;6.25;2.08;;;10.80;99.90;;;;;;4987789;28;20556;-71
2023/01/11 08:46:07;;;;;;;9.68;2.72;;;10.70;99.90;;;;;;4980341;28;20274;-70
2023/01/11 08:48:32;;;;;;;9.65;2.40;;;10.80;99.90;;;;;;4973994;28;20784;-71
2023/01/11 08:50:58;;;;;;;6.72;2.08;;;10.70;99.90;;;;;;4974989;28;20197;-70
2023/01/11 08:53:24;;;;;;;12.20;2.17;;;10.80;99.90;;;;;;4975469;28;20205;-70
2023/01/11 08:55:52;;;;;;;7.47;2.03;;;10.80;99.90;;;;;;4974372;28;20664;-71
2023/01/11 08:58:19;;;;;;;4.63;2.47;;;10.70;99.90;;;;;;4979641;28;20200;-71
2023/01/11 09:00:44;;;;;;;8.13;1.77;;;10.70;99.90;;;;;;4976917;28;20196;-70
2023/01/11 09:03:11;;;;;;;6.88;1.58;;;10.60;99.90;;;;;;4975115;28;20555;-70
2023/01/11 09:05:38;;;;;;;10.33;1.53;;;10.60;99.90;;;;;;4989394;28;20668;-71
2023/01/11 09:08:05;;;;;;;12.30;2.47;;;10.70;99.90;;;;;;4975797;28;20251;-70
2023/01/11 09:10:31;;;;;;;8.13;2.85;;;10.70;99.90;;;;;;4974454;28;20236;-71
2023/01/11 09:12:56;;;;;;;17.20;2.08;;;10.60;99.90;;;;;;4975020;28;20196;-70
2023/01/11 09:15:23;;;;;;;4.00;1.65;;;10.60;99.90;;;;;;4974921;28;20192;-70
2023/01/11 09:17:50;;;;;;;8.02;2.40;;;10.60;99.90;;;;;;4978471;28;20612;-70
2023/01/11 09:20:16;;;;;;;9.80;2.63;;;10.50;99.90;;;;;;4974760;28;20220;-71
2023/01/11 09:22:45;;;;;;;5.55;2.35;;;10.50;99.90;;;;;;4987111;28;20212;-70
2023/01/11 09:25:12;;;;;;;9.05;1.98;;;10.50;99.90;;;;;;4974780;28;20193;-70
2023/01/11 09:27:41;;;;;;;8.38;1.85;;;10.60;99.90;;;;;;4990171;28;20180;-70
2023/01/11 09:30:07;;;;;;;7.80;2.60;;;10.70;99.90;;;;;;4978628;28;20677;-70
2023/01/11 09:32:34;;;;;;;9.30;1.90;;;10.80;99.90;;;;;;4990902;28;20180;-70
2023/01/11 09:35:00;;;;;;;5.38;1.55;;;10.80;99.90;;;;;;4986599;28;20274;-70
2023/01/11 09:37:26;;;;;;;11.35;2.65;;;10.80;99.90;;;;;;4985804;28;20193;-70
2023/01/11 09:39:52;;;;;;;9.35;2.40;;;11.00;99.90;;;;;;4984382;28;20192;-70
2023/01/11 09:42:30;;;;;;;8.63;2.08;;;11.00;99.90;;;;;;4978582;28;20196;-70
2023/01/11 09:45:11;;;;;;;14.30;2.75;;;10.90;99.90;;;;;;4980495;28;20187;-70
2023/01/11 09:47:51;;;;;;;10.65;2.85;;;11.00;99.90;;;;;;4985841;28;20678;-71
2023/01/11 09:50:24;;;;;;;9.40;2.60;;;11.20;99.90;;;;;;4984854;28;20216;-70
2023/01/11 09:52:57;;;;;;;3.25;1.58;;;11.60;99.90;;;;;;4981818;28;20203;-70
2023/01/11 09:55:38;;;;;;;7.05;1.23;;;11.80;99.90;;;;;;4985433;28;20213;-70
2023/01/11 09:58:31;;;;;;;13.25;1.80;;;11.70;99.90;;;;;;4985301;28;20186;-70
2023/01/11 10:01:13;;;;;;;5.45;1.85;;;11.60;99.90;;;;;;4992522;28;20254;-70
2023/01/11 10:04:16;;;;;;;9.15;2.33;;;11.70;99.90;;;;;;4974280;28;20189;-70
2023/01/11 10:06:59;;;;;;;7.80;1.63;;;11.80;99.90;;;;;;4981668;28;20219;-70
2023/01/11 10:09:51;;;;;;;12.07;2.65;;;11.70;99.90;;;;;;4987604;28;20223;-70
2023/01/11 10:12:30;;;;;;;12.55;2.53;;;11.50;99.90;;;;;;4961965;28;20200;-70
2023/01/11 10:15:14;;;;;;;10.98;2.38;;;11.50;99.90;;;;;;4986565;28;20533;-70
2023/01/11 10:17:53;;;;;;;11.75;2.47;;;11.50;99.90;;;;;;4978805;28;20283;-70
2023/01/11 10:20:34;;;;;;;5.82;2.30;;;11.30;99.90;;;;;;4973741;28;20187;-70
2023/01/11 10:23:27;;;;;;;7.07;2.17;;;11.30;99.90;;;;;;4977589;28;20721;-70
2023/01/11 10:26:01;;;;;;;12.80;2.00;;;11.30;99.90;;;;;;4983819;28;20276;-70
2023/01/11 10:28:34;;;;;;;7.75;1.85;;;11.30;99.90;;;;;;4982668;28;20219;-70
2023/01/11 10:31:25;;;;;;;11.15;2.60;;;11.30;99.90;;;;;;4985433;28;20181;-70
2023/01/11 10:43:02;;;;;;;6.30;1.65;;;11.40;99.90;;;;;;4975192;28;20564;-70
2023/01/11 10:45:37;;;;;;;5.68;2.72;;;11.30;99.90;;;;;;4975088;28;20184;-70
2023/01/11 10:48:19;;;;;;;14.95;1.98;;;11.40;99.90;;;;;;4975625;28;20194;-67
2023/01/11 10:51:01;;;;;;;9.40;1.95;;;11.30;99.90;;;;;;4977500;28;20188;-68
2023/01/11 10:54:12;;;;;;;6.22;2.03;;;11.30;99.90;;;;;;4982091;28;20557;-68
2023/01/11 10:57:03;;;;;;;6.03;1.80;;;11.40;99.90;;;;;;4986104;28;20198;-68
2023/01/11 10:59:34;;;;;;;12.70;2.30;;;11.30;99.90;;;;;;4979050;28;20181;-71
2023/01/11 11:02:26;;;;;;;7.97;3.70;;;11.50;99.90;;;;;;4980258;28;20258;-70
2023/01/11 11:04:58;;;;;;;12.52;3.97;;;11.60;99.90;;;;;;4990713;28;20235;-70
2023/01/11 11:07:31;;;;;;;11.32;2.15;;;11.50;99.90;;;;;;4990923;28;20295;-70
2023/01/11 11:10:15;;;;;;;7.43;2.70;;;11.60;99.90;;;;;;4987057;28;20224;-70
2023/01/11 11:12:55;;;;;;;10.60;1.90;;;11.60;99.90;;;;;;4978757;28;20653;-70
2023/01/11 11:15:44;;;;;;;7.00;2.85;;;11.60;99.90;;;;;;4978535;28;20184;-71
2023/01/11 11:18:10;;;;;;;6.20;2.10;;;11.70;99.90;;;;;;4987475;28;20265;-71
2023/01/11 11:20:36;;;;;;;3.88;1.90;;;11.70;99.90;;;;;;4975843;28;20212;-70
2023/01/11 11:23:01;;;;;;;4.55;1.38;;;11.70;99.90;;;;;;4974233;28;20235;-71
2023/01/11 11:25:38;;;;;;;7.40;2.88;;;11.80;99.90;;;;;;4981817;28;20220;-71
2023/01/11 11:28:06;;;;;;;10.93;2.85;;;11.90;99.90;;;;;;4976836;28;20192;-70
2023/01/11 11:30:38;;;;;;;9.68;2.47;;;12.00;99.90;;;;;;4977429;28;20536;-71
2023/01/11 11:33:19;;;;;;;9.85;2.30;;;12.00;99.90;;;;;;4994465;28;20204;-70
2023/01/11 11:35:55;;;;;;;12.20;2.97;;;12.00;99.90;;;;;;4983234;28;20195;-70
2023/01/11 11:38:29;;;;;;;2.67;2.08;;;12.10;99.90;;;;;;4981963;28;20271;-70
2023/01/11 11:41:05;;;;;;;8.38;2.95;;;12.30;99.90;;;;;;4990048;28;20200;-70
2023/01/11 11:43:39;;;;;;;8.02;2.10;;;12.30;99.90;;;;;;4991263;28;20613;-70
2023/01/11 11:46:13;;;;;;;5.85;1.92;;;12.20;99.90;;;;;;4989335;28;20553;-70
2023/01/11 11:48:43;;;;;;;14.52;2.95;;;12.20;99.90;;;;;;4984821;28;20680;-70
2023/01/11 11:51:19;;;;;;;10.40;1.95;;;12.20;99.90;;;;;;4974706;28;20188;-70
2023/01/11 11:53:55;;;;;;;13.98;2.75;;;12.30;99.90;;;;;;4976210;28;20188;-70
2023/01/11 11:56:27;;;;;;;10.43;2.00;;;12.30;99.90;;;;;;4981374;28;20192;-70
2023/01/11 11:58:54;;;;;;;5.28;1.33;;;12.40;99.90;;;;;;4976483;28;20712;-71
2023/01/11 12:01:26;;;;;;;12.98;3.00;;;12.30;99.90;;;;;;4975900;28;20196;-70
2023/01/11 12:04:10;;;;;;;9.38;4.03;;;12.20;99.90;;;;;;4984267;28;20181;-70
2023/01/11 12:06:36;;;;;;;6.22;3.30;;;12.30;99.90;;;;;;4991548;28;20192;-70
2023/01/11 12:09:08;;;;;;;6.43;3.38;;;12.30;99.90;;;;;;4991993;28;20274;-70
2023/01/11 12:11:38;;;;;;;13.13;3.00;;;12.50;99.90;;;;;;4984417;28;20184;-70
2023/01/11 12:14:15;;;;;;;6.53;3.05;;;12.60;99.90;;;;;;4987011;28;20287;-69
2023/01/11 12:16:42;;;;;;;11.77;2.58;;;12.60;99.90;;;;;;4979455;28;20195;-70
2023/01/11 12:19:42;;;;;;;7.32;1.85;;;12.70;99.90;;;;;;4975905;28;20661;-70
2023/01/11 12:22:16;;;;;;;13.48;2.10;;;12.70;99.90;;;;;;4991344;28;20184;-70
2023/01/11 12:24:41;;;;;;;9.30;2.47;;;12.50;99.90;;;;;;4975984;28;20215;-71
2023/01/11 12:27:10;;;;;;;9.15;1.83;;;12.50;99.90;;;;;;4990975;28;20208;-70
2023/01/11 12:29:51;;;;;;;7.10;3.63;;;12.40;99.90;;;;;;4986354;28;20568;-70
2023/01/11 12:32:30;;;;;;;15.68;2.72;;;12.40;99.90;;;;;;4991200;28;20256;-70
2023/01/11 12:35:26;;;;;;;9.85;2.42;;;12.50;99.90;;;;;;4982828;28;20243;-69
2023/01/11 12:38:12;;;;;;;6.47;2.25;;;12.40;99.90;;;;;;4991514;28;20266;-70
2023/01/11 12:40:50;;;;;;;7.47;2.22;;;12.30;99.90;;;;;;4982425;28;20181;-70
2023/01/11 12:43:28;;;;;;;7.18;2.15;;;12.40;99.90;;;;;;4980071;28;20192;-70
2023/01/11 12:46:37;;;;;;;8.00;2.50;;;12.40;99.90;;;;;;4975879;28;20189;-70
2023/01/11 12:49:16;;;;;;;6.95;1.90;;;12.40;99.90;;;;;;4965435;28;20243;-69
2023/01/11 12:52:09;;;;;;;8.15;1.50;;;12.40;99.90;;;;;;4977098;28;20196;-70
2023/01/11 12:54:38;;;;;;;4.32;1.73;;;12.50;99.90;;;;;;4987139;28;20266;-70
2023/01/11 12:57:21;;;;;;;8.57;1.42;;;12.80;99.90;;;;;;4992798;28;20192;-70
2023/01/11 13:00:08;;;;;;;4.43;1.80;;;12.80;99.90;;;;;;4992076;28;20192;-69
2023/01/11 13:02:45;;;;;;;7.75;1.58;;;12.80;99.90;;;;;;4983158;28;20189;-69
2023/01/11 13:05:30;;;;;;;14.40;2.13;;;12.80;99.90;;;;;;4974795;28;20195;-69
2023/01/11 13:07:59;;;;;;;12.77;1.95;;;12.80;99.90;;;;;;4982054;28;20182;-69
2023/01/11 13:11:06;;;;;;;6.40;2.90;;;12.70;99.90;;;;;;4982965;28;20216;-69
2023/01/11 13:13:59;;;;;;;5.93;2.55;;;12.50;99.90;;;;;;4981660;28;20273;-69
2023/01/11 13:16:35;;;;;;;15.02;3.45;;;12.50;99.90;;;;;;4988514;28;20580;-69
2023/01/11 13:19:13;;;;;;;11.68;2.13;;;12.40;99.90;;;;;;4980667;28;20323;-69
2023/01/11 13:21:52;;;;;;;4.88;2.00;;;12.50;99.90;;;;;;4985284;28;20184;-69
2023/01/11 13:24:28;;;;;;;9.85;2.70;;;12.60;99.90;;;;;;4988283;28;20194;-69
2023/01/11 13:27:06;;;;;;;6.95;2.00;;;12.70;99.90;;;;;;4975332;28;20246;-69
2023/01/11 13:29:36;;;;;;;3.38;1.17;;;12.90;99.90;;;;;;4979888;28;20211;-70
2023/01/11 13:32:06;;;;;;;11.10;2.53;;;12.90;99.90;;;;;;4986714;28;20263;-69
2023/01/11 13:34:50;;;;;;;3.63;3.33;;;12.70;99.90;;;;;;4974841;28;20181;-69
2023/01/11 13:37:25;;;;;;;8.88;2.13;;;12.50;99.90;;;;;;4974768;28;20534;-69
2023/01/11 13:40:07;;;;;;;4.22;1.55;;;12.50;99.90;;;;;;4973559;28;20564;-69
2023/01/11 13:42:47;;;;;;;13.25;2.20;;;12.50;99.90;;;;;;4981708;28;20181;-69